Woodgate, New York
Current Conditions -  °F | °C
As of 8:15 AM on Thursday 30 Oct 2014 (Local Time) from KRME Reporting Station
Scattered Clouds Scattered Clouds  
Wind Chill:   Ceiling: Unl
Heat Index:   Visibility: 10mi
Dew Point:   Wind: 5mph
Humidity: 96%   Direction: 280°W
Pressure: 30.01"   Gusts: NA
Location:  43.52°N, 75.16°W
Report Text: KRME 301215Z 28004KT 10SM FEW011 SCT017 SCT045 05/04 A3001 RMK AO2 T00500044
Loading
Personal Weather Stations






























Interactive Weather Map
Tropical Storm Tracking
New forecast layout! Learn more

10-Day Weather Forecast

Advertisements
Track Severe Weather on mobile